Aviation Digital Data Service (ADDS)

Output produced by METARs form (0921 UTC 24 October 2017)
found at http://aviationweather.gov/adds/metars/
 
KSAN 240857Z 2409/2512 VRB04KT P6SM SKC 
     FM242000 32009KT P6SM SKC 
     FM250100 VRB03KT P6SM SKC